createdAt,value
2022-08-25T00:01:47.850Z,99750.00
2022-08-25T00:04:15.934Z,99744.88
2022-08-25T00:06:44.844Z,99742.97
2022-08-25T00:09:12.706Z,99738.91
2022-08-25T00:11:39.914Z,99732.81
2022-08-25T00:14:09.002Z,99736.72
2022-08-25T00:16:35.540Z,99738.53
2022-08-25T00:19:04.422Z,99732.16
2022-08-25T00:21:31.928Z,99734.97
2022-08-25T00:23:58.653Z,99739.63
2022-08-25T00:26:26.276Z,99740.50
2022-08-25T00:28:54.204Z,99741.38
2022-08-25T00:31:37.830Z,99735.94
2022-08-25T00:34:08.236Z,99734.97
2022-08-25T00:36:35.070Z,99736.72
2022-08-25T00:39:01.534Z,99737.69
2022-08-25T00:41:28.168Z,99737.81
2022-08-25T00:43:56.837Z,99735.09
2022-08-25T00:46:28.607Z,99732.25
2022-08-25T00:49:00.350Z,99735.84
2022-08-25T00:51:52.948Z,99733.13
2022-08-25T00:54:22.710Z,99728.69
2022-08-25T00:56:49.442Z,99723.28
2022-08-25T00:59:16.573Z,99724.34
2022-08-25T01:01:43.268Z,99721.38
2022-08-25T01:04:09.716Z,99721.66
2022-08-25T01:06:38.428Z,99729.72
2022-08-25T01:09:05.312Z,99737.66
2022-08-25T01:11:31.816Z,99734.00
2022-08-25T01:13:59.084Z,99728.00
2022-08-25T01:16:25.652Z,99717.44
2022-08-25T01:18:53.627Z,99717.56
2022-08-25T01:21:21.673Z,99723.84
2022-08-25T01:23:49.306Z,99719.31
2022-08-25T01:26:21.095Z,99720.06
2022-08-25T01:29:16.222Z,99716.59
2022-08-25T01:31:42.745Z,99720.56
2022-08-25T01:34:09.907Z,99715.34
2022-08-25T01:36:36.552Z,99712.63
2022-08-25T01:39:03.270Z,99718.81
2022-08-25T01:41:29.704Z,99720.66
2022-08-25T01:43:56.502Z,99719.69
2022-08-25T01:46:23.140Z,99714.19
2022-08-25T01:48:49.626Z,99719.47
2022-08-25T01:51:16.589Z,99722.13
2022-08-25T01:53:44.413Z,99717.34
2022-08-25T01:56:12.119Z,99707.28
2022-08-25T01:58:40.000Z,99711.75
2022-08-25T02:01:08.425Z,99710.69
2022-08-25T02:03:38.768Z,99708.75
2022-08-25T02:06:08.829Z,99707.69
2022-08-25T02:08:35.424Z,99715.69
2022-08-25T02:11:02.088Z,99707.69
2022-08-25T02:13:31.484Z,99715.81
2022-08-25T02:16:01.177Z,99713.09
2022-08-25T02:18:27.806Z,99704.97
2022-08-25T02:20:54.305Z,99703.22
2022-08-25T02:23:21.174Z,99702.38
2022-08-25T02:25:47.550Z,99697.59
2022-08-25T02:28:14.282Z,99703.50
2022-08-25T02:30:42.525Z,99704.06
2022-08-25T02:33:09.121Z,99692.03
2022-08-25T02:35:35.763Z,99695.41
2022-08-25T02:38:02.409Z,99696.09
2022-08-25T02:40:28.851Z,99692.50
2022-08-25T02:42:55.583Z,99699.56
2022-08-25T02:45:22.065Z,99700.34
2022-08-25T02:47:48.529Z,99706.53
2022-08-25T02:50:15.115Z,99703.69
2022-08-25T02:52:42.391Z,99708.94
2022-08-25T02:55:12.845Z,99712.31
2022-08-25T02:57:39.718Z,99708.63
2022-08-25T03:00:07.018Z,99704.06
2022-08-25T03:02:33.755Z,99703.97
2022-08-25T03:05:00.309Z,99705.59
2022-08-25T03:07:26.765Z,99702.81
2022-08-25T03:09:54.332Z,99702.69
2022-08-25T03:12:22.397Z,99699.00
2022-08-25T03:14:48.924Z,99697.38
2022-08-25T03:17:16.265Z,99695.22
2022-08-25T03:19:42.721Z,99688.72
2022-08-25T03:22:09.110Z,99688.84
2022-08-25T03:24:35.551Z,99688.16
2022-08-25T03:27:01.973Z,99688.06
2022-08-25T03:29:30.787Z,99683.19
2022-08-25T03:32:00.819Z,99680.94
2022-08-25T03:34:29.261Z,99675.41
2022-08-25T03:36:56.325Z,99676.50
2022-08-25T03:39:23.884Z,99673.00
2022-08-25T03:41:51.763Z,99672.22
2022-08-25T03:44:18.646Z,99672.22
2022-08-25T03:46:48.907Z,99666.25
2022-08-25T03:49:17.700Z,99679.81
2022-08-25T03:51:47.024Z,99675.47
2022-08-25T03:54:14.409Z,99679.25
2022-08-25T03:56:40.962Z,99682.19
2022-08-25T03:59:10.606Z,99682.47
2022-08-25T04:01:38.552Z,99680.06
2022-08-25T04:04:05.798Z,99680.59
2022-08-25T04:06:32.364Z,99670.72
2022-08-25T04:08:58.896Z,99677.41
2022-08-25T04:11:26.140Z,99673.84
2022-08-25T04:13:53.146Z,99680.31
2022-08-25T04:16:22.070Z,99675.03
2022-08-25T04:18:50.174Z,99676.75
2022-08-25T04:21:17.587Z,99675.97
2022-08-25T04:23:45.078Z,99677.16
2022-08-25T04:26:12.494Z,99676.69
2022-08-25T04:28:38.899Z,99676.69
2022-08-25T04:31:06.387Z,99672.91
2022-08-25T04:33:32.861Z,99670.97
2022-08-25T04:35:59.254Z,99675.31
2022-08-25T04:38:26.264Z,99677.72
2022-08-25T04:40:56.483Z,99681.00
2022-08-25T04:43:22.940Z,99679.69
2022-08-25T04:45:49.409Z,99681.03
2022-08-25T04:48:15.871Z,99668.72
2022-08-25T04:50:43.930Z,99661.03
2022-08-25T04:53:11.005Z,99670.41
2022-08-25T04:55:41.396Z,99666.97
2022-08-25T04:58:08.293Z,99670.66
2022-08-25T05:00:42.081Z,99674.50
2022-08-25T05:03:08.667Z,99683.66
2022-08-25T05:05:38.332Z,99678.44
2022-08-25T05:08:06.163Z,99677.59
2022-08-25T05:10:33.411Z,99678.88
2022-08-25T05:13:00.009Z,99685.50
2022-08-25T05:15:45.310Z,99687.34
2022-08-25T05:18:13.398Z,99689.94
2022-08-25T05:20:40.083Z,99691.75
2022-08-25T05:23:06.476Z,99691.00
2022-08-25T05:25:34.694Z,99684.22
2022-08-25T05:28:01.567Z,99689.50
2022-08-25T05:30:28.102Z,99696.50
2022-08-25T05:32:54.721Z,99693.94
2022-08-25T05:35:21.189Z,99698.81
2022-08-25T05:37:47.592Z,99686.59
2022-08-25T05:40:15.404Z,99689.84
2022-08-25T05:42:41.933Z,99687.81
2022-08-25T05:45:09.856Z,99689.22
2022-08-25T05:47:42.418Z,99692.41
2022-08-25T05:50:09.453Z,99686.69
2022-08-25T05:52:35.931Z,99685.63
2022-08-25T05:55:02.498Z,99690.13
2022-08-25T05:57:29.054Z,99682.97
2022-08-25T05:59:55.538Z,99682.47
2022-08-25T06:02:40.593Z,99683.06
2022-08-25T06:05:08.997Z,99686.00
2022-08-25T06:07:36.237Z,99684.34
2022-08-25T06:10:05.301Z,99671.00
2022-08-25T06:12:33.298Z,99677.22
2022-08-25T06:14:59.764Z,99674.09
2022-08-25T06:17:26.364Z,99671.84
2022-08-25T06:19:53.724Z,99675.63
2022-08-25T06:22:21.362Z,99674.16
2022-08-25T06:24:48.124Z,99676.16
2022-08-25T06:27:14.567Z,99672.81
2022-08-25T06:29:40.937Z,99679.25
2022-08-25T06:32:08.943Z,99685.25
2022-08-25T06:34:35.347Z,99680.66
2022-08-25T06:37:01.963Z,99678.56
2022-08-25T06:39:28.390Z,99674.41
2022-08-25T06:41:56.468Z,99678.78
2022-08-25T06:44:24.004Z,99673.56
2022-08-25T06:46:50.969Z,99674.88
2022-08-25T06:49:17.399Z,99674.34
2022-08-25T06:51:43.889Z,99670.09
2022-08-25T06:54:10.388Z,99674.03
2022-08-25T06:56:36.947Z,99675.97
2022-08-25T06:59:04.277Z,99671.16
2022-08-25T07:01:32.156Z,99666.03
2022-08-25T07:03:59.850Z,99678.16
2022-08-25T07:06:27.244Z,99677.88
2022-08-25T07:08:53.963Z,99669.97
2022-08-25T07:11:23.425Z,99668.53
2022-08-25T07:13:50.449Z,99668.56
2022-08-25T07:16:19.952Z,99669.63
2022-08-25T07:18:47.455Z,99675.56
2022-08-25T07:21:14.254Z,99667.25
2022-08-25T07:23:41.314Z,99666.75
2022-08-25T07:26:15.770Z,99665.63
2022-08-25T07:28:47.890Z,99660.31
2022-08-25T07:31:14.358Z,99663.31
2022-08-25T07:34:00.820Z,99666.38
2022-08-25T07:36:27.294Z,99662.75
2022-08-25T07:38:54.355Z,99661.66
2022-08-25T07:41:21.662Z,99666.09
2022-08-25T07:43:48.600Z,99659.41
2022-08-25T07:46:18.925Z,99657.19
2022-08-25T07:48:45.513Z,99648.16
2022-08-25T07:51:19.906Z,99653.88
2022-08-25T07:53:46.402Z,99655.56
2022-08-25T07:56:14.973Z,99650.94
2022-08-25T07:58:42.932Z,99655.56
2022-08-25T08:01:17.499Z,99654.25
2022-08-25T08:03:50.267Z,99652.75
2022-08-25T08:06:18.514Z,99653.63
2022-08-25T08:08:45.815Z,99652.50
2022-08-25T08:11:17.236Z,99645.88
2022-08-25T08:13:44.384Z,99653.81
2022-08-25T08:16:12.017Z,99652.16
2022-08-25T08:18:39.840Z,99655.53
2022-08-25T08:21:11.379Z,99650.81
2022-08-25T08:23:37.964Z,99646.78
2022-08-25T08:26:04.925Z,99645.31
2022-08-25T08:28:31.333Z,99644.19
2022-08-25T08:30:57.852Z,99639.41
2022-08-25T08:33:25.106Z,99641.81
2022-08-25T08:36:05.189Z,99633.41
2022-08-25T08:38:32.159Z,99632.25
2022-08-25T08:41:54.238Z,99627.44
2022-08-25T08:44:27.597Z,99627.78
2022-08-25T08:47:04.991Z,99629.50
2022-08-25T08:49:40.869Z,99627.44
2022-08-25T08:52:11.650Z,99627.59
2022-08-25T08:54:41.338Z,99626.50
2022-08-25T08:57:20.355Z,99620.16
2022-08-25T08:59:52.927Z,99615.84
2022-08-25T09:02:51.565Z,99617.56
2022-08-25T09:05:20.882Z,99617.31
2022-08-25T09:07:49.514Z,99611.72
2022-08-25T09:10:22.999Z,99603.56
2022-08-25T09:13:12.238Z,99608.59
2022-08-25T09:16:01.337Z,99602.31
2022-08-25T09:18:50.719Z,99597.50
2022-08-25T09:21:30.288Z,99601.16
2022-08-25T09:24:05.743Z,99599.00
2022-08-25T09:26:39.127Z,99591.88
2022-08-25T09:29:16.798Z,99590.72
2022-08-25T09:31:44.926Z,99588.09
2022-08-25T09:34:14.059Z,99592.75
2022-08-25T09:36:40.607Z,99585.03
2022-08-25T09:39:07.501Z,99583.31
2022-08-25T09:41:42.281Z,99588.31
2022-08-25T09:44:19.360Z,99581.09
2022-08-25T09:47:02.036Z,99578.81
2022-08-25T09:49:39.743Z,99582.59
2022-08-25T09:52:18.362Z,99572.47
2022-08-25T09:54:47.646Z,99581.78
2022-08-25T09:57:30.815Z,99577.75
2022-08-25T09:59:57.853Z,99570.88
2022-08-25T10:02:28.823Z,99566.75
2022-08-25T10:04:55.781Z,99564.19
2022-08-25T10:07:27.706Z,99563.81
2022-08-25T10:10:02.454Z,99562.81
2022-08-25T10:12:42.831Z,99562.44
2022-08-25T10:15:29.956Z,99550.94
2022-08-25T10:17:58.816Z,99544.38
2022-08-25T10:20:30.897Z,99548.31
2022-08-25T10:23:09.749Z,99541.91
2022-08-25T10:25:40.250Z,99536.06
2022-08-25T10:28:09.669Z,99538.16
2022-08-25T10:30:48.221Z,99530.69
2022-08-25T10:33:33.951Z,99522.94
2022-08-25T10:36:14.734Z,99525.72
2022-08-25T10:38:57.735Z,99518.00
2022-08-25T10:41:42.212Z,99521.44
2022-08-25T10:44:29.637Z,99514.56
2022-08-25T10:47:05.482Z,99515.59
2022-08-25T10:49:45.315Z,99509.25
2022-08-25T10:52:16.361Z,99504.25
2022-08-25T10:54:58.174Z,99507.97
2022-08-25T10:57:45.891Z,99507.97
2022-08-25T11:00:17.761Z,99500.44
2022-08-25T11:02:44.415Z,99492.84
2022-08-25T11:05:18.399Z,99492.47
2022-08-25T11:07:54.249Z,99495.53
2022-08-25T11:10:37.006Z,99493.06
2022-08-25T11:13:07.675Z,99487.06
2022-08-25T11:15:54.820Z,99486.34
2022-08-25T11:18:32.009Z,99487.06
2022-08-25T11:21:12.013Z,99473.41
2022-08-25T11:23:44.869Z,99475.03
2022-08-25T11:26:12.536Z,99466.53
2022-08-25T11:28:51.892Z,99474.38
2022-08-25T11:31:19.827Z,99472.06
2022-08-25T11:33:46.361Z,99469.41
2022-08-25T11:36:13.562Z,99463.78
2022-08-25T11:38:47.922Z,99467.28
2022-08-25T11:41:23.610Z,99463.41
2022-08-25T11:43:58.975Z,99464.44
2022-08-25T11:46:44.018Z,99460.25
2022-08-25T11:49:21.797Z,99457.56
2022-08-25T11:51:49.116Z,99462.19
2022-08-25T11:54:18.175Z,99455.28
2022-08-25T11:56:57.501Z,99458.16
2022-08-25T11:59:42.887Z,99449.41
2022-08-25T12:02:27.956Z,99451.94
2022-08-25T12:04:55.494Z,99444.06
2022-08-25T12:07:24.201Z,99441.97
2022-08-25T12:09:51.054Z,99442.84
2022-08-25T12:12:35.950Z,99437.09
2022-08-25T12:15:20.817Z,99426.09
2022-08-25T12:18:08.551Z,99423.22
2022-08-25T12:20:53.740Z,99420.81
2022-08-25T12:23:37.800Z,99412.88
2022-08-25T12:26:13.897Z,99421.16
2022-08-25T12:29:01.107Z,99421.06
2022-08-25T12:31:47.378Z,99407.06
2022-08-25T12:34:26.934Z,99411.81
2022-08-25T12:37:06.157Z,99401.41
2022-08-25T12:39:37.415Z,99403.97
2022-08-25T12:42:07.260Z,99413.63
2022-08-25T12:44:36.427Z,99409.03
2022-08-25T12:47:07.910Z,99408.75
2022-08-25T12:49:35.875Z,99406.72
2022-08-25T12:52:28.379Z,99406.09
2022-08-25T12:54:54.823Z,99403.88
2022-08-25T12:57:29.382Z,99404.25
2022-08-25T12:59:57.564Z,99403.91
2022-08-25T13:02:39.855Z,99394.28
2022-08-25T13:05:17.930Z,99401.69
2022-08-25T13:07:50.513Z,99396.75
2022-08-25T13:10:19.851Z,99389.47
2022-08-25T13:12:52.477Z,99389.47
2022-08-25T13:15:48.968Z,99386.53
2022-08-25T13:18:32.536Z,99372.88
2022-08-25T13:21:19.676Z,99377.69
2022-08-25T13:23:48.289Z,99380.34
2022-08-25T13:26:15.939Z,99376.63
2022-08-25T13:28:50.438Z,99373.00
2022-08-25T13:31:22.484Z,99370.28
2022-08-25T13:33:59.842Z,99371.94
2022-08-25T13:36:51.099Z,99356.19
2022-08-25T13:39:45.381Z,99364.16
2022-08-25T13:42:16.175Z,99364.09
2022-08-25T13:44:52.425Z,99358.84
2022-08-25T13:47:43.344Z,99357.31
2022-08-25T13:50:20.598Z,99358.31
2022-08-25T13:52:52.824Z,99355.13
2022-08-25T13:55:20.728Z,99345.38
2022-08-25T13:57:47.499Z,99354.41
2022-08-25T14:00:25.070Z,99351.94
2022-08-25T14:02:58.543Z,99349.00
2022-08-25T14:05:41.815Z,99347.03
2022-08-25T14:08:28.432Z,99347.69
2022-08-25T14:11:15.070Z,99349.78
2022-08-25T14:13:44.429Z,99353.91
2022-08-25T14:16:22.780Z,99351.63
2022-08-25T14:18:58.796Z,99348.59
2022-08-25T14:21:28.303Z,99349.44
2022-08-25T14:23:55.462Z,99338.41
2022-08-25T14:26:22.349Z,99343.28
2022-08-25T14:28:49.571Z,99336.41
2022-08-25T14:31:23.800Z,99339.66
2022-08-25T14:34:02.462Z,99337.84
2022-08-25T14:36:31.654Z,99334.03
2022-08-25T14:38:58.144Z,99333.34
2022-08-25T14:41:25.498Z,99324.56
2022-08-25T14:43:52.165Z,99324.38
2022-08-25T14:46:23.416Z,99322.09
2022-08-25T14:48:54.705Z,99321.47
2022-08-25T14:51:22.282Z,99312.03
2022-08-25T14:53:49.143Z,99314.50
2022-08-25T14:56:15.608Z,99308.13
2022-08-25T14:58:51.083Z,99300.25
2022-08-25T15:01:28.914Z,99303.16
2022-08-25T15:03:58.290Z,99299.25
2022-08-25T15:06:24.731Z,99299.16
2022-08-25T15:09:11.442Z,99299.91
2022-08-25T15:11:42.744Z,99294.38
2022-08-25T15:14:11.007Z,99295.13
2022-08-25T15:16:41.862Z,99295.16
2022-08-25T15:19:09.720Z,99293.03
2022-08-25T15:21:36.661Z,99300.00
2022-08-25T15:24:04.807Z,99294.94
2022-08-25T15:26:32.313Z,99294.88
2022-08-25T15:28:59.314Z,99296.38
2022-08-25T15:31:26.526Z,99299.03
2022-08-25T15:33:53.626Z,99307.78
2022-08-25T15:36:22.948Z,99296.53
2022-08-25T15:38:51.133Z,99298.66
2022-08-25T15:41:17.849Z,99292.44
2022-08-25T15:43:44.261Z,99298.06
2022-08-25T15:46:14.281Z,99298.59
2022-08-25T15:48:40.977Z,99291.22
2022-08-25T15:51:08.575Z,99285.13
2022-08-25T15:53:36.378Z,99291.59
2022-08-25T15:56:06.180Z,99287.59
2022-08-25T15:58:35.353Z,99284.91
2022-08-25T16:01:02.415Z,99275.47
2022-08-25T16:03:28.973Z,99274.16
2022-08-25T16:05:55.508Z,99268.94
2022-08-25T16:08:21.960Z,99269.47
2022-08-25T16:10:48.358Z,99276.66
2022-08-25T16:13:16.263Z,99273.94
2022-08-25T16:15:54.093Z,99274.94
2022-08-25T16:18:21.741Z,99268.59
2022-08-25T16:20:48.508Z,99269.44
2022-08-25T16:23:16.256Z,99261.59
2022-08-25T16:25:43.599Z,99265.94
2022-08-25T16:28:14.170Z,99264.50
2022-08-25T16:30:44.253Z,99256.56
2022-08-25T16:33:19.309Z,99251.25
2022-08-25T16:35:47.456Z,99260.94
2022-08-25T16:38:15.669Z,99261.16
2022-08-25T16:40:42.598Z,99260.00
2022-08-25T16:43:10.134Z,99263.66
2022-08-25T16:45:36.610Z,99260.91
2022-08-25T16:48:04.920Z,99259.94
2022-08-25T16:50:31.562Z,99262.63
2022-08-25T16:53:19.624Z,99264.22
2022-08-25T16:55:50.344Z,99260.09
2022-08-25T16:58:17.846Z,99256.50
2022-08-25T17:00:45.828Z,99255.38
2022-08-25T17:03:12.970Z,99257.66
2022-08-25T17:05:40.504Z,99262.13
2022-08-25T17:08:25.716Z,99262.50
2022-08-25T17:10:52.542Z,99268.69
2022-08-25T17:13:18.971Z,99266.13
2022-08-25T17:15:47.146Z,99271.63
2022-08-25T17:18:13.922Z,99272.31
2022-08-25T17:20:42.087Z,99281.63
2022-08-25T17:23:12.390Z,99270.78
2022-08-25T17:25:41.307Z,99271.25
2022-08-25T17:28:09.549Z,99286.19
2022-08-25T17:30:39.053Z,99275.88
2022-08-25T17:33:05.502Z,99281.03
2022-08-25T17:35:32.175Z,99279.66
2022-08-25T17:37:58.596Z,99288.38
2022-08-25T17:40:25.089Z,99286.16
2022-08-25T17:42:53.499Z,99284.75
2022-08-25T17:45:19.892Z,99281.09
2022-08-25T17:47:46.287Z,99293.63
2022-08-25T17:50:12.695Z,99294.47
2022-08-25T17:52:39.478Z,99295.09
2022-08-25T17:55:06.209Z,99297.13
2022-08-25T17:57:35.214Z,99297.25
2022-08-25T18:00:09.069Z,99300.53
2022-08-25T18:02:36.978Z,99306.16
2022-08-25T18:05:05.214Z,99303.75
2022-08-25T18:07:32.022Z,99310.91
2022-08-25T18:09:58.422Z,99308.28
2022-08-25T18:12:27.412Z,99308.41
2022-08-25T18:14:54.065Z,99307.66
2022-08-25T18:17:21.948Z,99311.34
2022-08-25T18:19:49.521Z,99316.41
2022-08-25T18:22:16.762Z,99314.31
2022-08-25T18:24:44.478Z,99311.50
2022-08-25T18:27:11.800Z,99315.28
2022-08-25T18:29:38.237Z,99317.31
2022-08-25T18:32:07.475Z,99312.63
2022-08-25T18:34:34.064Z,99311.19
2022-08-25T18:37:22.932Z,99315.28
2022-08-25T18:40:08.820Z,99315.91
2022-08-25T18:42:36.402Z,99320.84
2022-08-25T18:45:05.747Z,99314.09
2022-08-25T18:47:32.591Z,99315.44
2022-08-25T18:50:02.658Z,99317.09
2022-08-25T18:52:30.885Z,99318.41
2022-08-25T18:54:58.345Z,99319.88
2022-08-25T18:57:24.732Z,99318.28
2022-08-25T18:59:51.395Z,99320.47
2022-08-25T19:02:18.202Z,99319.97
2022-08-25T19:04:44.943Z,99317.50
2022-08-25T19:07:13.200Z,99323.16
2022-08-25T19:09:39.651Z,99320.00
2022-08-25T19:12:06.326Z,99320.47
2022-08-25T19:14:38.507Z,99324.38
2022-08-25T19:17:05.244Z,99323.25
2022-08-25T19:19:31.877Z,99334.25
2022-08-25T19:21:59.219Z,99323.53
2022-08-25T19:24:25.832Z,99325.84
2022-08-25T19:26:54.791Z,99321.81
2022-08-25T19:29:21.864Z,99326.75
2022-08-25T19:31:49.047Z,99326.34
2022-08-25T19:34:19.502Z,99317.56
2022-08-25T19:36:46.563Z,99328.06
2022-08-25T19:39:15.376Z,99328.50
2022-08-25T19:41:43.489Z,99326.25
2022-08-25T19:44:12.046Z,99326.38
2022-08-25T19:46:39.566Z,99322.94
2022-08-25T19:49:11.898Z,99318.47
2022-08-25T19:51:39.442Z,99321.38
2022-08-25T19:54:06.866Z,99325.09
2022-08-25T19:56:36.368Z,99326.25
2022-08-25T19:59:03.643Z,99324.97
2022-08-25T20:01:30.119Z,99325.56
2022-08-25T20:03:56.975Z,99324.56
2022-08-25T20:06:23.661Z,99320.69
2022-08-25T20:08:59.259Z,99313.81
2022-08-25T20:11:27.518Z,99315.97
2022-08-25T20:13:53.951Z,99318.97
2022-08-25T20:16:21.058Z,99318.56
2022-08-25T20:18:47.661Z,99312.25
2022-08-25T20:21:14.088Z,99320.00
2022-08-25T20:23:59.221Z,99310.63
2022-08-25T20:26:26.912Z,99312.78
2022-08-25T20:28:53.414Z,99316.09
2022-08-25T20:31:19.879Z,99313.94
2022-08-25T20:33:46.894Z,99314.25
2022-08-25T20:36:15.543Z,99322.72
2022-08-25T20:38:44.666Z,99318.25
2022-08-25T20:41:14.383Z,99324.13
2022-08-25T20:43:41.848Z,99318.13
2022-08-25T20:46:08.850Z,99319.97
2022-08-25T20:48:35.763Z,99321.25
2022-08-25T20:51:06.453Z,99319.53
2022-08-25T20:53:35.358Z,99315.06
2022-08-25T20:56:02.579Z,99316.06
2022-08-25T20:58:28.960Z,99320.09
2022-08-25T21:00:55.474Z,99318.94
2022-08-25T21:03:22.183Z,99309.56
2022-08-25T21:05:48.660Z,99316.47
2022-08-25T21:08:20.547Z,99310.44
2022-08-25T21:10:50.516Z,99315.28
2022-08-25T21:13:16.906Z,99316.72
2022-08-25T21:15:48.483Z,99307.91
2022-08-25T21:18:15.242Z,99311.78
2022-08-25T21:20:41.645Z,99311.31
2022-08-25T21:23:08.518Z,99309.75
2022-08-25T21:25:41.907Z,99315.50
2022-08-25T21:28:08.881Z,99313.75
2022-08-25T21:30:35.331Z,99311.28
2022-08-25T21:33:02.200Z,99310.44
2022-08-25T21:35:28.686Z,99310.59
2022-08-25T21:37:55.879Z,99309.00
2022-08-25T21:40:23.179Z,99308.41
2022-08-25T21:42:50.206Z,99305.09
2022-08-25T21:45:16.661Z,99308.06
2022-08-25T21:47:47.438Z,99309.34
2022-08-25T21:50:13.913Z,99310.50
2022-08-25T21:52:41.228Z,99307.03
2022-08-25T21:55:09.247Z,99301.88
2022-08-25T21:57:43.035Z,99302.72
2022-08-25T22:00:11.626Z,99295.66
2022-08-25T22:02:38.575Z,99290.34
2022-08-25T22:05:09.154Z,99293.34
2022-08-25T22:07:40.472Z,99297.06
2022-08-25T22:10:16.825Z,99286.31
2022-08-25T22:12:44.737Z,99289.75
2022-08-25T22:15:12.478Z,99292.03
2022-08-25T22:17:40.552Z,99293.03
2022-08-25T22:20:08.010Z,99293.88
2022-08-25T22:22:34.552Z,99293.19
2022-08-25T22:25:01.014Z,99290.47
2022-08-25T22:27:27.765Z,99288.72
2022-08-25T22:29:54.395Z,99280.25
2022-08-25T22:32:20.839Z,99287.44
2022-08-25T22:34:48.337Z,99276.81
2022-08-25T22:37:17.926Z,99272.34
2022-08-25T22:39:45.529Z,99277.81
2022-08-25T22:42:12.170Z,99266.91
2022-08-25T22:44:39.855Z,99265.19
2022-08-25T22:47:06.877Z,99261.00
2022-08-25T22:49:36.856Z,99260.25
2022-08-25T22:52:03.916Z,99255.06
2022-08-25T22:54:30.304Z,99251.78
2022-08-25T22:57:02.322Z,99257.34
2022-08-25T22:59:32.392Z,99256.63
2022-08-25T23:02:00.331Z,99246.88
2022-08-25T23:04:26.821Z,99245.13
2022-08-25T23:06:53.399Z,99252.44
2022-08-25T23:09:20.668Z,99249.97
2022-08-25T23:11:47.846Z,99253.81
2022-08-25T23:14:17.992Z,99244.06
2022-08-25T23:16:44.522Z,99243.06
2022-08-25T23:19:13.569Z,99246.88
2022-08-25T23:21:59.006Z,99242.72
2022-08-25T23:24:26.894Z,99249.38
2022-08-25T23:26:57.690Z,99241.91
2022-08-25T23:29:24.657Z,99241.97
2022-08-25T23:31:51.984Z,99242.50
2022-08-25T23:34:20.266Z,99231.91
2022-08-25T23:36:46.713Z,99226.44
2022-08-25T23:39:13.154Z,99229.88
2022-08-25T23:41:40.099Z,99230.75
2022-08-25T23:44:06.523Z,99232.75
2022-08-25T23:46:35.996Z,99221.84
2022-08-25T23:49:03.975Z,99222.84
2022-08-25T23:51:33.599Z,99219.25
2022-08-25T23:54:04.011Z,99225.00
2022-08-25T23:56:30.492Z,99217.22
2022-08-25T23:58:57.014Z,99216.59
